• Join FlightAware (Why Join?)
  • Login
  • US Flag 
10:04AM EDT


 

Airport Tracker/Info


-or-


 

Live Flight TrackerFlight Track Log ✈ SWA385 ✈ 15-Jul-2013 ✈ KIAD - KMDW

Flight Track Log - Related Links

Times and Time Zones

All times are in EDT time to prevent confusion due to time zone crossing. See the SWA385 flight status page for this flight to view local times or setup timezone preferences in your user account.

Time Position Orientation Groundspeed Altitude Reporting Facility
EDT Latitude Longitude Course Direction KTS MPH feet Rate Location/Type
04:59PM 38.9500 -77.5167 270° West 179 206 1,900  Level Potomac TRACON
05:01PM 38.8938 -77.6624 237° Southwest  Level FlightAware Approximate
05:02PM 38.8878 -77.7572 237° Southwest 270 311 9,300  Level Washington Center
05:03PM 38.9214 -77.8461 296° West 254 292 11,400 2,400 Climbing Washington Center
05:04PM 38.9631 -77.9542 296° West 289 333 14,200 3,060 Climbing Washington Center
05:05PM 38.9500 -78.2289 270° West  Level FlightAware Approximate
05:05PM 38.9628 -78.0825 270° West 334 384 17,600  Level Washington Center
05:06PM 38.9600 -78.2106 268° West 348 400 20,000 2,460 Climbing Washington Center
05:07PM 38.9631 -78.3467 272° West 369 425 22,500 2,400 Climbing Washington Center
05:08PM 38.9681 -78.4911 273° West 384 442 24,800 1,980 Climbing Washington Center
05:09PM 38.9728 -78.6381 272° West 403 464 26,600 2,220 Climbing Washington Center
05:10PM 38.9772 -78.7878 272° West 418 481 29,300 2,400 Climbing Washington Center
05:11PM 38.9817 -78.9350 272° West 418 481 31,400 1,860 Climbing Washington Center
05:12PM 38.9836 -79.0819 271° West 418 481 33,000 840 Climbing Washington Center
05:13PM 38.9878 -79.2289 272° West 418 481 33,100 60 Climbing Washington Center
05:14PM 38.9908 -79.3922 271° West 437 503 33,200 900 Climbing Washington Center
05:15PM 38.9958 -79.5606 272° West 460 529 35,000 1,560 Climbing Washington Center
05:16PM 39.0033 -79.7158 274° West 486 559 36,400 1,320 Climbing Washington Center
05:17PM 39.0006 -79.8981 269° West 467 537 37,800 1,140 Climbing Indianapolis Center
05:18PM 39.0039 -80.0611 272° West 470 541 38,800 1,020 Climbing Indianapolis Center
05:19PM 39.0069 -80.2494 271° West 466 536 40,000 540 Climbing Indianapolis Center
05:20PM 39.0106 -80.4139 272° West 463 533 40,000  Level Indianapolis Center
05:21PM 39.0342 -80.5706 281° West 459 528 40,000  Level Indianapolis Center
05:22PM 39.0969 -80.7139 299° West 462 532 40,000  Level Indianapolis Center
05:23PM 39.1606 -80.8542 300° West 458 527 40,000  Level Indianapolis Center
05:24PM 39.2233 -80.9947 300° West 456 525 40,000  Level Indianapolis Center
05:25PM 39.2986 -81.1625 300° West 453 521 40,000  Level Indianapolis Center
05:26PM 39.3619 -81.3033 300° West 455 524 40,000  Level Indianapolis Center
05:27PM 39.4236 -81.4431 300° West 452 520 40,000  Level Indianapolis Center
05:28PM 39.4858 -81.5847 300° West 454 522 40,000  Level Indianapolis Center
05:30PM 39.5486 -81.7269 300° West 455 524 40,000  Level Indianapolis Center
05:31PM 39.6106 -81.8706 299° West 456 525 40,000  Level Indianapolis Center
05:32PM 39.6861 -82.0436 300° West 458 527 40,000  Level Indianapolis Center
05:33PM 39.7400 -82.1683 299° West 459 528 40,000  Level Indianapolis Center
05:34PM 39.8125 -82.3397 299° West 459 528 40,000  Level Indianapolis Center
05:35PM 39.8756 -82.4853 299° West 459 528 40,000  Level Indianapolis Center
05:36PM 39.9375 -82.6311 299° West 457 526 40,000  Level Indianapolis Center
05:37PM 39.9994 -82.7761 299° West 457 526 40,000  Level Indianapolis Center
05:38PM 40.0611 -82.9219 299° West 457 526 40,000  Level Indianapolis Center
05:39PM 40.1222 -83.0678 299° West 457 526 40,000  Level Indianapolis Center
05:40PM 40.1939 -83.2386 299° West 460 529 40,000  Level Indianapolis Center
05:41PM 40.2544 -83.3853 298° West 458 527 40,000  Level Indianapolis Center
05:42PM 40.3156 -83.5331 299° West 460 529 40,000 -540 Level Indianapolis Center
05:43PM 40.3761 -83.6819 298° West 461 531 39,000 -840 Descending Indianapolis Center
05:44PM 40.4381 -83.8308 299° West 463 533 38,300 -540 Descending Indianapolis Center
05:45PM 40.4978 -83.9781 298° West 456 525 38,000 -600 Descending Indianapolis Center
05:46PM 40.5578 -84.1267 298° West 457 526 37,100 -1,800 Descending Indianapolis Center
05:47PM 40.6275 -84.2986 298° West 454 522 34,300 -2,400 Descending Indianapolis Center
05:48PM 40.6886 -84.4525 298° West 468 539 32,200 -2,040 Descending Indianapolis Center
05:49PM 40.7494 -84.6031 298° West 463 533 30,100 -1,080 Descending Indianapolis Center
05:50PM 40.8083 -84.7556 297° West 463 533 30,000 -60 Descending Indianapolis Center
05:51PM 40.8686 -84.9075 298° West 465 535 30,000  Level Indianapolis Center
05:52PM 40.9356 -85.0747 298° West 466 536 30,000 -540 Level Indianapolis Center
05:53PM 41.0286 -85.1875 318° Northwest 461 531 29,000 -960 Descending Indianapolis Center
05:54PM 41.1372 -85.2794 327° Northwest 464 534 28,100 -960 Descending Indianapolis Center
05:55PM 41.2456 -85.3750 326° Northwest 469 540 27,100 -1,020 Descending Indianapolis Center
05:56PM 41.3517 -85.4672 327° Northwest 460 529 26,100 -1,140 Descending Indianapolis Center
05:57PM 41.4567 -85.5606 326° Northwest 455 524 24,800 -2,040 Descending Indianapolis Center
05:58PM 41.5183 -85.7231 297° West 434 499 21,900 -2,640 Descending Indianapolis Center
05:59PM 41.5217 -85.8753 272° West 418 481 19,400 -2,220 Descending Indianapolis Center
06:00PM 41.5250 -86.0214 272° West 405 466 17,400 -2,220 Descending Indianapolis Center
06:02PM 41.5239 -86.2242 270° West 383 441 13,800 -2,340 Descending Chicago Center
06:03PM 41.5219 -86.3881 269° West 369 425 11,500 -1,680 Descending Chicago Center
06:04PM 41.5214 -86.5183 270° West 355 409 10,300 -720 Descending Chicago Center
06:05PM 41.5200 -86.6475 269° West 350 403 10,000 -180 Descending Chicago Center
06:06PM 41.5197 -86.7669 270° West 342 394 10,000 -240 Level Chicago Center
06:07PM 41.5189 -86.8975 270° West 287 330 9,600 -900 Descending Chicago Center
06:08PM 41.5181 -87.0003 269° West 278 320 8,200 -1,500 Descending Chicago Center
06:09PM 41.5256 -87.1008 276° West 273 314 6,500 -1,500 Descending Chicago Center
06:10PM 41.5378 -87.2033 279° West 280 322 5,100 -1,260 Descending Chicago Center
06:11PM 41.5517 -87.3239 279° West 277 319 4,000 -540 Descending Chicago Center
06:12PM 41.5639 -87.4217 280° West 272 313 4,000  Level Chicago Center
06:13PM 41.5756 -87.5192 279° West 270 311 4,000 -180 Level Chicago Center
06:14PM 41.5881 -87.6178 280° West 270 311 3,700 -540 Descending Chicago Center
06:15PM 41.6125 -87.7108 289° West 274 315 3,000 -600 Descending Chicago Center
06:16PM 41.6672 -87.7928 312° West 259 298 2,500 -360 Descending Chicago Center
06:17PM 41.7164 -87.8308 330° Northwest 231 266 2,300 -540 Descending Chicago Center
06:19PM 41.7489 -87.7989 36° Northeast 177 204 1,500 -720 Descending Chicago Center
06:20PM 41.7769 -87.7628 44° Northeast 152 175 900 -600 Descending Chicago Center